Tiempo atmosférico en la estación meteorológica de Colmenar Viejo, Madrid (1004 m.)



Fecha
DESCASC
Temp. máxima en grados centígrados (hora)
DESCASC
Temp. mínima en grados centígrados (hora)
DESCASC
Temp. media en grados centígrados
DESCASC
Racha de viento máxima en m/sg (hora)
DESCASC
Velocidad máxima media en intervalos de 10 minutos(hora)
DESCASC
Precipitaciones diarias en mm
DESCASC
Precipitaciones de 00:00 a 06:00 en mm
DESCASC
Precipitaciones de 06:00 a 12:00 en mm
DESCASC
Precipitaciones de 12:00 a 18:00 en mm
DESCASC
Precipitaciones de 18:00 a 24:00 en mm
DESCASC
18-08-2019 31.9 (17:30) 19.9 (07:20) 25.9 11.67 (16:40) 5.28 (15:50) 0 0 0 0 0
17-08-2019 33.5 (18:00) 20.1 (07:40) 26.8 11.39 (16:50) 5.28 (18:30) 0 0 0 0 0
16-08-2019 32.7 (18:40) 18.4 (07:50) 25.6 11.11 (01:20) 7.22 (01:30) 0 0 0 0 0
15-08-2019 32.7 (18:40) 19.4 (00:00) 26.1 8.61 (23:50) 6.11 (23:59) 0 0 0 0 0
14-08-2019 30.6 (18:40) 15.4 (00:00) 23 6.39 (19:00) 2.78 (19:50) 0 0 0 0 0
13-08-2019 27.6 (18:50) 10.8 (00:00) 19.2 10.28 (16:00) 4.72 (01:10) 0 0 0 0 0
12-08-2019 24 (17:00) 12.9 (00:00) 18.4 9.17 (12:40) 5.28 (17:00) 0 0 0 0 0
11-08-2019 26.2 (15:50) 16.9 (00:00) 21.6 10.28 (15:50) 5 (15:10) 0 0 0 0 0
10-08-2019 28.1 (18:20) 15.2 (00:00) 21.7 10 (18:30) 4.72 (19:00) 0 0 0 0 0
09-08-2019 28.2 (16:40) 17.3 (00:00) 22.8 14.17 (15:40) 7.78 (18:20) 0 0 0 0 0
08-08-2019 29.6 (17:10) 16 (00:00) 22.8 13.06 (19:10) 6.39 (19:10) 0 0 0 0 0
07-08-2019 24.9 (00:10) 18.3 (00:00) 21.6 8.33 (15:10) 3.61 (18:00) 0 0 0 0 0
06-08-2019 32 (17:50) 19.4 (00:00) 25.7 10.28 (15:50) 5 (18:20) 0 0 0 0 0
05-08-2019 32.6 (17:10) 20.4 (00:00) 26.5 10.28 (16:10) 5 (17:20) 0 0 0 0 0
04-08-2019 32.4 (17:30) 20.1 (00:00) 26.3 9.17 (14:50) 4.44 (16:30) 0 0 0 0 0
03-08-2019 32.2 (17:50) 19.4 (00:00) 25.8 10 (02:10) 5.56 (02:00) 0 0 0 0 0
02-08-2019 32.1 (17:00) 19.6 (00:00) 25.8 12.22 (18:20) 3.61 (18:50) 0 0 0 0 0
01-08-2019 31 (18:00) 17 (00:00) 24 9.72 (14:50) 4.17 (14:50) 0 0 0 0 0
31-07-2019 30.4 (18:20) 16.2 (00:00) 23.3 10.28 (00:50) 6.11 (21:50) 1.2 0 0 0 1.2
30-07-2019 28.2 (17:30) 13.1 (00:00) 20.7 8.33 (23:50) 3.89 (23:50) 0 0 0 0 0
29-07-2019 29.4 (18:00) 17.2 (00:00) 23.3 11.67 (16:10) 4.72 (13:50) 0 0 0 0 0
28-07-2019 28.2 (19:00) 11 (00:00) 19.6 7.78 (16:50) 3.61 (17:00) 0 0 0 0 0
27-07-2019 22.8 (17:20) 14.7 (00:00) 18.7 13.06 (15:10) 7.22 (15:20) 0 0 0 0 0
26-07-2019 28.9 (17:10) 18.6 (00:00) 23.8 10.83 (13:30) 5 (13:30) 0 0 0 0 0
25-07-2019 32.4 (18:00) 21.8 (00:00) 27.1 11.67 (13:30) 6.39 (13:40) 0 0 0 0 0
24-07-2019 33.9 (17:10) 21.2 (00:00) 27.6 9.17 (16:20) 4.44 (16:20) 0 0 0 0 0
23-07-2019 34.3 (19:00) 20.7 (00:00) 27.5 18.33 (20:20) 8.33 (20:20) 0.2 0 0 0 0.2
22-07-2019 33.8 (17:30) 21.3 (00:00) 27.5 8.89 (19:00) 4.72 (19:20) 0 0 0 0 0

Gráficas

Temp. máximas Temp. mínimas Temp. medias Precipitaciones Rachas de viento máximas Velocidades máximas media en intervalos de 10 minutos

Datos horarios

Fecha y hora oficial Temperatura (ºC) Velocidad del viento (km/h) Dirección del viento Racha (km/h) Dirección de racha Precipitación (mm) Presión (hPa) Tendencia (hPa) Humedad (%)
2019-08-20 23:00:00 19 24 Nordeste 38 Nordeste 0 907.6 1.8 62
2019-08-20 22:00:00 19.9 17 Este 31 Este 0 906.8 1.2 57
2019-08-20 21:00:00 21.5 20 Este 32 Este 0 906.2 0.7 51
2019-08-20 20:00:00 23.9 21 Este 30 Este 0 905.8 0 47
2019-08-20 19:00:00 24.5 13 Este 27 Este 0 905.6 -0.3 46
2019-08-20 18:00:00 25.4 10 Este 25 Este 0 905.5 -0.8 45
2019-08-20 17:00:00 25.5 4 Norte 30 Este 0 905.8 -0.5 45
2019-08-20 16:00:00 25.2 14 Este 28 Este 0 905.9 -0.5 46
2019-08-20 15:00:00 25 16 Este 32 Este 0 906.3 0.2 49
2019-08-20 14:00:00 24.1 17 Este 32 Sudeste 0 906.3 0.5 51
2019-08-20 13:00:00 24 14 Este 27 Este 0 906.4 1.1 53
2019-08-20 12:00:00 21.9 18 Este 31 Este 0 906.1 1.3 57
2019-08-20 11:00:00 20.6 20 Este 35 Este 0 905.8 1.4 62
2019-08-20 10:00:00 19.7 7 Nordeste 22 Norte 0 905.3 1.3 67
2019-08-20 09:00:00 17.2 2 Noroeste 14 Norte 0 904.8 1.3 69
2019-08-20 08:00:00 16 4 Nordeste 10 Nordeste 0 904.4 1.1 74
2019-08-20 07:00:00 14.9 4 Norte 10 Sudeste 0 904 0.8 81
2019-08-20 06:00:00 16.8 0 Calma 10 Noroeste 0 903.5 -0.3 69
2019-08-20 05:00:00 16.5 7 Norte 23 Noroeste 0 903.3 -0.5 72
2019-08-20 04:00:00 17 8 Este 13 Oeste 0.2 903.2 -0.5 72
2019-08-20 03:00:00 18.8 6 Oeste 18 Oeste 0 903.8 0.8 53
2019-08-20 02:00:00 19.5 7 Oeste 23 Oeste 0.1 903.8 0.7 49
2019-08-20 01:00:00 21.3 5 Oeste 21 Oeste 0 903.7 0.9 45
2019-08-20 00:00:00 21.4 4 Oeste 17 Oeste 0.1 903 0.8 45
2019-08-19 23:00:00 22.8 7 Oeste 20 Oeste 0 903.1 0.8 42
2019-08-19 22:00:00 23.8 5 Oeste 12 Oeste 0 902.8 0.4 40
2019-08-19 21:00:00 24.8 4 Oeste 11 Oeste 0 902.2 -0.2 30
2019-08-19 20:00:00 25.8 5 Sudoeste 24 Sudoeste 0 902.3 -0.4 28
2019-08-19 19:00:00 26.6 10 Sudoeste 28 Sudoeste 0 902.4 -0.8 28
2019-08-19 18:00:00 27.4 14 Sudoeste 28 Oeste 0 902.4 -0.8 30
2019-08-19 17:00:00 27.1 15 Sudoeste 33 Sudoeste 0 902.7 -0.6 34
2019-08-19 16:00:00 26.6 14 Sudoeste 32 Sudoeste 0 903.2 -0.3 34
2019-08-19 15:00:00 27.8 11 Sudoeste 35 Sudoeste 0 903.2 -0.3 36
2019-08-19 14:00:00 27.3 11 Sur 38 Sudeste 0 903.3 -0.1 40
2019-08-19 13:00:00 24.9 9 Sur 22 Sudeste 0 903.5 0.1 48
2019-08-19 12:00:00 24.1 7 Sur 20 Este 0 903.5 0.1 52
2019-08-19 11:00:00 24 9 Este 18 Este 0 903.4 0.3 55
2019-08-19 10:00:00 21.8 10 Este 15 Este 0 903.4 0.4 59
2019-08-19 09:00:00 20.7 3 Nordeste 9 Sudeste 0 903.4 0.6 61
2019-08-19 08:00:00 19 0 Calma 10 Norte 0 903.1 0.3 64
2019-08-19 07:00:00 18.2 0 Calma 6 Este 0 903 0.2 64
2019-08-19 06:00:00 19.4 4 Este 8 Sudeste 0 902.8 -0.2 57
2019-08-19 05:00:00 19.7 4 Sudeste 8 Sudeste 0 902.8 0 53
2019-08-19 04:00:00 20.1 2 Oeste 7 Sudeste 0 902.8 -0.2 52
2019-08-19 03:00:00 21 3 Sudoeste 9 Sur 0 903 0.4 49
2019-08-19 02:00:00 21.6 7 Sur 9 Sur 0 902.8 0.5 51
2019-08-19 01:00:00 22.2 0 Calma 9 Sudeste 0 903 1.3 45
2019-08-19 00:00:00 22.1 5 Sudoeste 13 Oeste 0 902.6 1.1 43
2019-08-18 23:00:00 22.8 6 Oeste 10 Sudoeste 0 902.3 1.3 39
2019-08-18 22:00:00 24.2 3 Noroeste 9 Oeste 0 901.7 0.8 36
2019-08-18 21:00:00 26.6 5 Noroeste 21 Oeste 0 901.5 0.7 33
2019-08-18 20:00:00 28.7 9 Oeste 22 Oeste 0 901 -0.1 30
2019-08-18 19:00:00 29.8 11 Oeste 26 Oeste 0 900.9 -0.6 28
2019-08-18 18:00:00 31.3 13 Sudoeste 36 Sur 0 900.8 -0.8 27
2019-08-18 17:00:00 31 15 Sur 42 Sudoeste 0 901.1 -0.9 27
2019-08-18 16:00:00 30.3 15 Sudoeste 37 Oeste 0 901.5 -1 28
2019-08-18 15:00:00 30.1 14 Sur 36 Sudoeste 0 901.6 -1.1 27
2019-08-18 14:00:00 30.5 14 Sur 37 Sudoeste 0 902 -0.6 27
2019-08-18 13:00:00 28.5 16 Sudoeste 35 Sudoeste 0 902.5 0.2 30
2019-08-18 12:00:00 27.2 13 Sur 28 Sur 0 902.7 0.9 33
2019-08-18 11:00:00 25.1 7 Sur 13 Sur 0 902.6 1.1 34
2019-08-18 10:00:00 23.3 6 Sudeste 13 Sudeste 0 902.3 1.1 35
2019-08-18 09:00:00 22.3 8 Sudeste 11 Sudeste 0 901.8 0.7 36
2019-08-18 08:00:00 20.6 0 Calma 9 Sur 0 901.5 0.1 36
2019-08-18 07:00:00 20.3 5 Noroeste 8 Oeste 0 901.2 -0.2 35
2019-08-18 06:00:00 21.2 0 Calma 7 Noroeste 0 901.1 -0.6 36
2019-08-18 05:00:00 21.1 0 Calma 6 Oeste 0 901.4 -0.5 36
2019-08-18 04:00:00 21.7 3 Sudoeste 10 Oeste 0 901.4 -0.7 35
2019-08-18 03:00:00 23.1 5 Oeste 10 Oeste 0 901.7 -0.7 33
2019-08-18 02:00:00 23.5 6 Oeste 15 Oeste 0 901.9 -0.6 33
2019-08-18 01:00:00 24.3 7 Oeste 16 Oeste 0 902.1 -0.2 31
2019-08-18 00:00:00 25.2 7 Oeste 13 Noroeste 0 902.4 0.4 31
2019-08-17 23:00:00 25.7 6 Oeste 18 Oeste 0 902.5 0.7 29
2019-08-17 22:00:00 27 4 Noroeste 22 Sudoeste 0 902.3 0.2 29
2019-08-17 21:00:00 29 10 Sudoeste 34 Sudoeste 0 902 -0.5 29
2019-08-17 20:00:00 31 12 Sudoeste 32 Sur 0 901.8 -0.8 27
2019-08-17 19:00:00 32.4 18 Sudoeste 38 Sur 0 902.1 -1.2 26
2019-08-17 18:00:00 33.3 12 Sudoeste 40 Sudoeste 0 902.5 -1.4 24
2019-08-17 17:00:00 32.7 15 Sudoeste 41 Sudoeste 0 902.6 -1.9 27
2019-08-17 16:00:00 32.3 12 Sur 36 Sur 0 903.3 -1.6 27
2019-08-17 15:00:00 31.5 18 Sudoeste 39 Sudoeste 0 903.9 -1.4 30
2019-08-17 14:00:00 30.9 14 Sur 29 Sudoeste 0 904.5 -1 32
2019-08-17 13:00:00 29.4 11 Sur 22 Sudeste 0 904.9 -0.4 34
2019-08-17 12:00:00 28.6 9 Sudeste 18 Sudeste 0 905.3 0.1 35
2019-08-17 11:00:00 27.9 9 Sudeste 15 Sur 0 905.5 0.7 36
2019-08-17 10:00:00 25.9 2 Noroeste 7 Noroeste 0 905.3 0.8 37
2019-08-17 09:00:00 23.6 2 Noroeste 7 Oeste 0 905.2 0.7 41
2019-08-17 08:00:00 21.2 3 Noroeste 6 Noroeste 0 904.8 0.6 43
2019-08-17 07:00:00 20.6 4 Oeste 8 Oeste 0 904.5 0.1 44
2019-08-17 06:00:00 20.6 5 Oeste 9 Noroeste 0 904.5 0.2 42
2019-08-17 05:00:00 21.3 5 Oeste 9 Oeste 0 904.2 -0.3 41
2019-08-17 04:00:00 22.8 4 Sudoeste 7 Sudoeste 0 904.4 -0.1 40
2019-08-17 03:00:00 23.5 3 Nordeste 8 Este 0 904.3 -0.2 39
2019-08-17 02:00:00 24.4 4 Nordeste 12 Nordeste 0 904.5 0 37
2019-08-17 01:00:00 25.7 7 Norte 12 Noroeste 0 904.5 0.3 37
2019-08-17 00:00:00 25.6 3 Norte 10 Norte 0 904.5 0.7 36
2019-08-16 23:00:00 26.5 5 Noroeste 15 Norte 0 904.5 1 36
2019-08-16 22:00:00 27.1 8 Norte 22 Noroeste 0 904.2 0.7 36
2019-08-16 21:00:00 29.2 4 Noroeste 19 Sudoeste 0 903.8 0 34
2019-08-16 20:00:00 30.1 10 Sudoeste 25 Sudoeste 0 903.5 -0.9 33
2019-08-16 19:00:00 31.7 8 Sudoeste 24 Sudoeste 0 903.5 -1.2 33
2019-08-16 18:00:00 31.8 12 Sur 28 Sudoeste 0 903.8 -1.4 33
2019-08-16 17:00:00 31.8 8 Sur 29 Sur 0 904.4 -1.4 34
2019-08-16 16:00:00 31 11 Sudoeste 30 Sudoeste 0 904.7 -1.5 36
2019-08-16 15:00:00 30.2 11 Sur 23 Sur 0 905.2 -1.4 38
2019-08-16 14:00:00 29.3 12 Sur 23 Sur 0 905.8 -0.8 41
2019-08-16 13:00:00 28.1 8 Sur 18 Sudeste 0 906.2 -0.6 44
2019-08-16 12:00:00 26.6 6 Sudeste 15 Este 0 906.6 -0.2 47
2019-08-16 11:00:00 25.5 3 Sudeste 15 Este 0 906.6 0.4 49
2019-08-16 10:00:00 23.3 4 Este 19 Este 0 906.8 0.8 52
2019-08-16 09:00:00 22.3 9 Este 13 Este 0 906.8 0.8 53
2019-08-16 08:00:00 18.7 0 Calma 10 Nordeste 0 906.2 -0.1 59
2019-08-16 07:00:00 19.7 4 Este 21 Nordeste 0 906 -0.5 56
2019-08-16 06:00:00 19.8 6 Nordeste 24 Norte 0 906 -0.5 55
2019-08-16 05:00:00 20.1 11 Norte 28 Norte 0 906.3 -0.2 53
2019-08-16 04:00:00 21.2 18 Nordeste 31 Nordeste 0 906.5 -0.1 51
2019-08-16 03:00:00 21.3 7 Nordeste 27 Este 0 906.5 0.2 51
2019-08-16 02:00:00 21.5 18 Este 40 Este 0 906.5 0.4 49
2019-08-16 01:00:00 21.7 22 Este 37 Este 0 906.6 1 47
2019-08-16 00:00:00 23.9 22 Este 31 Nordeste 0 906.3 1 39
2019-08-15 23:00:00 25.1 8 Nordeste 19 Norte 0 906.1 0.9 36
2019-08-15 22:00:00 26.2 7 Nordeste 18 Norte 0 905.6 0.4 33
2019-08-15 21:00:00 28.2 8 Noroeste 16 Nordeste 0 905.3 0.2 30
2019-08-15 20:00:00 31.6 2 Oeste 16 Norte 0 905.2 -0.3 30
2019-08-15 19:00:00 32.6 5 Noroeste 19 Este 0 905.2 -0.8 31
2019-08-15 18:00:00 32.1 4 Nordeste 14 Este 0 905.1 -1.3 33
2019-08-15 17:00:00 30.1 3 Noroeste 17 Sudoeste 0 905.5 -1.4 33
2019-08-15 16:00:00 31.4 7 Sudoeste 22 Sudoeste 0 906 -1.1 33
2019-08-15 15:00:00 30.9 6 Sur 19 Sur 0 906.4 -1 33
2019-08-15 14:00:00 29.2 8 Sudoeste 18 Sur 0 906.9 -0.8 33
2019-08-15 13:00:00 28.5 9 Sudeste 23 Sudeste 0 907.1 -0.4 33
2019-08-15 12:00:00 27.2 11 Sudeste 21 Sur 0 907.4 0 34
2019-08-15 11:00:00 26.3 6 Sur 14 Sur 0 907.7 0.6 35
2019-08-15 10:00:00 24.5 3 Sudoeste 8 Sudeste 0 907.5 0.9 37
2019-08-15 09:00:00 22.7 2 Oeste 7 Noroeste 0 907.4 1.1 39
2019-08-15 08:00:00 19.7 4 Noroeste 9 Noroeste 0 907.1 0.7 41
2019-08-15 07:00:00 20.4 4 Noroeste 9 Noroeste 0 906.6 0.1 37
2019-08-15 06:00:00 20.5 6 Norte 9 Noroeste 0 906.3 -0.2 35
2019-08-15 05:00:00 20.3 0 Calma 7 Sur 0 906.4 -0.5 35
2019-08-15 04:00:00 20.7 5 Este 10 Este 0 906.5 -0.4 36
2019-08-15 03:00:00 22.6 7 Norte 13 Noroeste 0 906.5 -0.5 33
2019-08-15 02:00:00 22.6 6 Norte 12 Noroeste 0 906.9 0 33
2019-08-15 01:00:00 22.1 4 Norte 9 Nordeste 0 906.9 0.6 32
2019-08-15 00:00:00 22.7 4 Norte 13 Norte 0 907 1 32
2019-08-14 23:00:00 23.7 6 Norte 14 Norte 0 906.9 1 31
2019-08-14 22:00:00 24.5 6 Nordeste 16 Nordeste 0 906.3 0.7 30
2019-08-14 21:00:00 26.7 6 Noroeste 19 Oeste 0 906 0 28
2019-08-14 20:00:00 29.4 8 Oeste 22 Oeste 0 905.9 -0.4 27
2019-08-14 19:00:00 29.9 9 Sur 23 Sur 0 905.6 -1.1 28
2019-08-14 18:00:00 29.9 9 Sur 22 Sur 0 906 -1.3 28
2019-08-14 17:00:00 29.7 7 Sur 19 Sur 0 906.3 -1.3 29
2019-08-14 16:00:00 28.8 7 Sur 20 Sudeste 0 906.7 -1.5 30
2019-08-14 15:00:00 27.6 6 Sudeste 21 Sur 0 907.3 -0.9 31
2019-08-14 14:00:00 26.6 9 Sudeste 18 Sudeste 0 907.6 -0.6 32
2019-08-14 13:00:00 24.7 8 Sudoeste 18 Sudeste 0 908.2 0.2 33
2019-08-14 12:00:00 23.9 7 Sur 17 Sur 0 908.2 0.3 34
2019-08-14 11:00:00 22.3 9 Sudeste 18 Sudeste 0 908.2 0.4 37
2019-08-14 10:00:00 21.9 5 Sur 13 Sudeste 0 908 0.4 37
2019-08-14 09:00:00 18.5 5 Noroeste 12 Norte 0 907.9 0.5 40
2019-08-14 08:00:00 16.6 6 Norte 13 Noroeste 0 907.8 0.5 42
2019-08-14 07:00:00 16.2 8 Norte 13 Norte 0 907.6 0 41
2019-08-14 06:00:00 16.2 8 Este 10 Este 0 907.4 -0.1 41
2019-08-14 05:00:00 15.6 3 Sudeste 7 Este 0 907.3 -0.3 40
2019-08-14 04:00:00 16.2 3 Norte 8 Nordeste 0 907.6 0.5 39
2019-08-14 03:00:00 16.3 4 Noroeste 7 Norte 0 907.5 0.7 41
2019-08-14 02:00:00 16.7 3 Nordeste 8 Sudeste 0 907.6 1 37
2019-08-14 01:00:00 18.2 5 Sudeste 15 Este 0 907.1 1 35
2019-08-14 00:00:00 19.3 5 Nordeste 21 Norte 0 906.8 1 34
2019-08-13 23:00:00 20.2 8 Nordeste 21 Nordeste 0 906.6 1.2 33
2019-08-13 22:00:00 21.1 8 Nordeste 16 Nordeste 0 906.1 0.7 31
2019-08-13 21:00:00 23.6 6 Sudeste 15 Sudoeste 0 905.8 0.4 29
2019-08-13 20:00:00 26.2 7 Sudoeste 21 Oeste 0 905.4 -0.5 27
2019-08-13 19:00:00 27.3 6 Sudoeste 17 Sudoeste 0 905.4 -0.7 27
2019-08-13 18:00:00 27 5 Este 19 Sudeste 0 905.4 -1.2 29
2019-08-13 17:00:00 26.6 2 Oeste 17 Este 0 905.9 -1.2 31
2019-08-13 16:00:00 25.4 6 Sudeste 37 Sudeste 0 906.1 -1.4 35
2019-08-13 15:00:00 24.8 3 Sur 18 Sudoeste 0 906.6 -1.1 36
2019-08-13 14:00:00 23.2 6 Sudeste 19 Este 0 907.1 -0.5 38
2019-08-13 13:00:00 22.4 9 Sur 19 Sur 0 907.5 0 40
2019-08-13 12:00:00 21.1 6 Sudeste 14 Sudeste 0 907.7 0.4 41
2019-08-13 11:00:00 19.8 0 Calma 9 Sudoeste 0 907.6 0.5 47
2019-08-13 10:00:00 16.5 0 Calma 6 Sur 0 907.5 0.7 53
2019-08-13 09:00:00 14.1 2 Sur 9 Noroeste 0 907.3 0.5 60
2019-08-13 08:00:00 11.5 4 Noroeste 8 Noroeste 0 907.1 -0.1 65
2019-08-13 07:00:00 12.1 3 Norte 20 Norte 0 906.8 -0.6 60
2019-08-13 06:00:00 12.2 9 Norte 23 Nordeste 0 906.8 -0.8 59
2019-08-13 05:00:00 13.5 12 Nordeste 26 Nordeste 0 907.2 -0.6 57
2019-08-13 04:00:00 12.8 5 Nordeste 19 Nordeste 0 907.4 0.3 59
2019-08-13 03:00:00 13.7 12 Este 23 Nordeste 0 907.6 0.7 56
2019-08-13 02:00:00 14.1 15 Este 25 Este 0 907.8 1.6 51
2019-08-13 01:00:00 15 16 Este 24 Este 0 907.1 1 45
2019-08-13 00:00:00 16.6 14 Este 24 Este 0 906.9 1 39
2019-08-12 23:00:00 16.8 10 Nordeste 28 Norte 0 906.2 0.9 38
2019-08-12 22:00:00 17.6 12 Norte 30 Nordeste 0 906.1 1.1 36
2019-08-12 21:00:00 19.3 13 Norte 30 Nordeste 0 905.9 0.5 33
2019-08-12 20:00:00 22 10 Norte 27 Norte 0 905.3 -0.1 31
2019-08-12 19:00:00 22.7 12 Nordeste 33 Este 0 905 -0.7 31
2019-08-12 18:00:00 23.2 8 Norte 32 Nordeste 0 905.4 -0.7 32
2019-08-12 17:00:00 23.8 19 Este 33 Este 0 905.4 -0.9 32
2019-08-12 16:00:00 22.9 15 Nordeste 32 Este 0 905.7 -0.9 33
2019-08-12 15:00:00 22.4 10 Este 26 Nordeste 0 906.1 -0.6 34
2019-08-12 14:00:00 21.6 9 Nordeste 27 Nordeste 0 906.3 -0.2 36
2019-08-12 13:00:00 21.2 14 Nordeste 33 Este 0 906.6 0.4 37
2019-08-12 12:00:00 19.3 10 Norte 25 Nordeste 0 906.7 1 40
2019-08-12 11:00:00 17.7 13 Norte 32 Norte 0 906.5 1.7 41
2019-08-12 10:00:00 16.9 9 Noroeste 27 Noroeste 0 906.2 1.7 43
2019-08-12 09:00:00 16.2 4 Norte 23 Noroeste 0 905.7 1.4 44
2019-08-12 08:00:00 13.9 9 Norte 20 Noroeste 0 904.8 0.5 48
2019-08-12 07:00:00 13.4 6 Norte 14 Norte 0 904.5 0.2 48
2019-08-12 06:00:00 13.7 5 Nordeste 16 Norte 0 904.3 -0.3 47
2019-08-12 05:00:00 14 5 Nordeste 15 Norte 0 904.3 -0.3 47
2019-08-12 04:00:00 15 7 Noroeste 21 Noroeste 0 904.3 -0.3 45
2019-08-12 03:00:00 15.4 8 Noroeste 17 Norte 0 904.6 0.2 43
2019-08-12 02:00:00 15.1 0 Calma 11 Noroeste 0 904.6 0.2 42
2019-08-12 01:00:00 16.3 0 Calma 14 Norte 0 904.6 0.6 41
2019-08-12 00:00:00 17.6 0 Calma 15 Oeste 0 904.4 1.2 40
2019-08-11 23:00:00 18 7 Oeste 19 Oeste 0 904.4 1.5 40
2019-08-11 22:00:00 19.4 8 Oeste 24 Oeste 0 904 1.1 39
2019-08-11 21:00:00 21 13 Oeste 31 Oeste 0 903.2 0.4 39
2019-08-11 20:00:00 22.9 13 Oeste 30 Oeste 0 902.9 0.2 39
2019-08-11 19:00:00 23.8 15 Oeste 30 Oeste 0 902.9 -0.1 40
2019-08-11 18:00:00 24.6 10 Oeste 29 Sur 0 902.8 -0.5 39
2019-08-11 17:00:00 24.8 13 Sudoeste 35 Sudoeste 0 902.7 -0.8 40
2019-08-11 16:00:00 24.5 14 Sur 37 Sur 0 903 -0.7 37
2019-08-11 15:00:00 25.4 15 Sur 35 Sudoeste 0 903.3 -0.8 37
2019-08-11 14:00:00 24.9 14 Sur 34 Sudoeste 0 903.5 -0.8 37
2019-08-11 13:00:00 23.2 16 Sur 35 Sudoeste 0 903.7 -0.4 39
2019-08-11 12:00:00 23.2 9 Sur 31 Sur 0 904.1 0.3 41
2019-08-11 11:00:00 21.8 12 Sur 19 Sur 0 904.3 1.2 43
2019-08-11 10:00:00 20.3 5 Sur 10 Sur 0 904.1 1.3 45
2019-08-11 09:00:00 18.4 3 Sudoeste 10 Sudeste 0 903.8 0.7 47
2019-08-11 08:00:00 16.9 7 Sudeste 13 Este 0 903.1 0 49
2019-08-11 07:00:00 17.7 6 Este 11 Este 0 902.8 -0.2 49
2019-08-11 06:00:00 17.6 3 Noroeste 15 Oeste 0 903.1 0 47
2019-08-11 05:00:00 18 8 Oeste 14 Oeste 0 903.1 -0.6 45
2019-08-11 04:00:00 18.1 6 Oeste 10 Oeste 0 903 -0.7 42
2019-08-11 03:00:00 18.8 4 Oeste 8 Sudeste 0 903.1 -1 39
2019-08-11 02:00:00 20.5 6 Sudeste 12 Sudeste 0 903.7 -0.4 35
2019-08-11 01:00:00 20.3 3 Este 7 Noroeste 0 903.7 -0.6 35
2019-08-11 00:00:00 20.2 4 Noroeste 6 Noroeste 0 904.1 -0.3 34
2019-08-10 23:00:00 21.1 3 Norte 8 Oeste 0 904.1 -0.3 33
2019-08-10 22:00:00 22.1 0 Calma 11 Oeste 0 904.3 -0.5 30
2019-08-10 21:00:00 23.6 4 Sudoeste 18 Sudoeste 0 904.4 -0.5 28
2019-08-10 20:00:00 25 10 Sudoeste 27 Sudoeste 0 904.4 -0.8 27
2019-08-10 19:00:00 26.7 17 Sudoeste 36 Sudoeste 0 904.8 -1 24
2019-08-10 18:00:00 27.9 13 Sudoeste 31 Sur 0 904.9 -1.3 24
2019-08-10 17:00:00 26.7 12 Sudoeste 28 Sur 0 905.2 -1.2 26
2019-08-10 16:00:00 27.4 10 Sur 26 Sudoeste 0 905.8 -1 27
2019-08-10 15:00:00 26.3 3 Sudeste 24 Sur 0 906.2 -0.7 33
2019-08-10 14:00:00 25.6 9 Sur 27 Sur 0 906.4 -0.6 40
2019-08-10 13:00:00 23.4 8 Sudeste 20 Sudeste 0 906.8 -0.3 51
2019-08-10 12:00:00 22.4 9 Sudeste 19 Este 0 906.9 0.1 58
2019-08-10 11:00:00 21.3 3 Este 17 Este 0 907 0.7 64
2019-08-10 10:00:00 19.7 11 Este 17 Nordeste 0 907.1 1 66
2019-08-10 09:00:00 18.3 2 Sudeste 8 Noroeste 0 906.8 1.1 71
2019-08-10 08:00:00 15.3 4 Noroeste 8 Noroeste 0 906.3 0.8 85
2019-08-10 07:00:00 15.7 2 Norte 6 Norte 0 906.1 0.7 84
2019-08-10 06:00:00 16.1 4 Este 7 Este 0 905.7 0.3 86
2019-08-10 05:00:00 16.3 0 Calma 9 Sudeste 0 905.5 -0.1 84
2019-08-10 04:00:00 17.3 8 Sudeste 11 Sudeste 0 905.4 0.2 83
2019-08-10 03:00:00 17.9 5 Este 8 Norte 0 905.4 -0.2 77
2019-08-10 02:00:00 17.7 3 Norte 10 Oeste 0 905.6 0 75
2019-08-10 01:00:00 18.6 5 Oeste 11 Oeste 0 905.2 0.2 75
2019-08-10 00:00:00 19.1 5 Sudoeste 10 Sudoeste 0 905.6 0.8 73
2019-08-09 23:00:00 19.6 5 Oeste 16 Oeste 0 905.6 1.4 71
2019-08-09 22:00:00 20.1 9 Oeste 28 Oeste 0 905 1.4 68
2019-08-09 21:00:00 21.6 12 Oeste 29 Oeste 0 904.8 1.6 64
2019-08-09 20:00:00 22.5 12 Oeste 38 Oeste 0 904.2 1.1 62
2019-08-09 19:00:00 25.2 22 Sudoeste 46 Sudoeste 0 903.6 0.2 55
2019-08-09 18:00:00 26.6 24 Sudoeste 46 Sudoeste 0 903.2 -0.5 52
2019-08-09 17:00:00 27.4 22 Sudoeste 50 Sudoeste 0 903.1 -1.2 52
2019-08-09 16:00:00 27.4 23 Sudoeste 51 Sudoeste 0 903.4 -1 53
2019-08-09 15:00:00 27.4 18 Sudoeste 40 Sudoeste 0 903.7 -0.5 55
2019-08-09 14:00:00 25.5 18 Sudoeste 42 Sudoeste 0 904.3 0.3 59
2019-08-09 13:00:00 25.1 16 Sur 34 Sudoeste 0 904.4 0.7 62
2019-08-09 12:00:00 23.9 13 Sudoeste 36 Sudoeste 0 904.2 0.7 65
2019-08-09 11:00:00 22.3 13 Sudoeste 30 Sudoeste 0 904 0.9 68
2019-08-09 10:00:00 20.2 12 Sur 24 Sur 0 903.7 0.9 74
2019-08-09 09:00:00 19.2 9 Sudoeste 25 Sudoeste 0 903.5 0.8 75
2019-08-09 08:00:00 18 7 Sudoeste 16 Sudoeste 0 903.1 0.3 75
2019-08-09 07:00:00 18 7 Sur 13 Sur 0 902.8 0 70
2019-08-09 06:00:00 19 4 Sudoeste 24 Sudoeste 0 902.7 -0.1 65
2019-08-09 05:00:00 19.6 12 Sudoeste 21 Sudoeste 0 902.8 -0.1 60
2019-08-09 04:00:00 20.7 10 Sudoeste 18 Sudoeste 0 902.8 0 54
2019-08-09 03:00:00 21.3 7 Sudoeste 13 Oeste 0 902.8 0 51
2019-08-09 02:00:00 21 6 Oeste 16 Oeste 0 902.9 0.1 51
2019-08-09 01:00:00 21.5 9 Oeste 19 Oeste 0 902.8 0.5 49
2019-08-09 00:00:00 22.6 8 Oeste 14 Oeste 0 902.8 0.7 48
2019-08-08 23:00:00 23.7 6 Oeste 13 Oeste 0 902.8 1.2 46
2019-08-08 22:00:00 24.9 7 Oeste 26 Oeste 0 902.3 0.7 45
2019-08-08 21:00:00 26.6 11 Oeste 38 Sudoeste 0 902.1 0.4 42
2019-08-08 20:00:00 27.9 23 Sudoeste 47 Sudoeste 0 901.6 -0.5 41
2019-08-08 19:00:00 28.7 21 Sudoeste 43 Sudoeste 0 901.6 -1 40
2019-08-08 18:00:00 29 18 Sudoeste 40 Sudoeste 0 901.7 -1.3 42
2019-08-08 17:00:00 28.1 16 Sudoeste 39 Sudoeste 0 902.1 -1.2 44
2019-08-08 16:00:00 28.6 15 Sur 32 Sudoeste 0 902.6 -1.1 45
2019-08-08 15:00:00 28.4 12 Sudoeste 33 Sur 0 903 -0.7 46
2019-08-08 14:00:00 26.6 12 Sur 41 Sudeste 0 903.3 -0.5 47
2019-08-08 13:00:00 25.5 9 Sur 30 Este 0 903.7 0 48
2019-08-08 12:00:00 24.1 9 Sur 27 Sur 0 903.7 0.2 50
2019-08-08 11:00:00 22.9 5 Sur 13 Sudeste 0 903.8 0.7 53
2019-08-08 10:00:00 21.4 7 Sudeste 13 Sur 0 903.7 0.5 55
2019-08-08 09:00:00 18.3 4 Norte 9 Norte 0 903.5 0.7 62
2019-08-08 08:00:00 17 0 Calma 6 Oeste 0 903.1 0.1 66
2019-08-08 07:00:00 17.1 4 Este 10 Sudeste 0 903.2 0.1 64
2019-08-08 06:00:00 17.6 8 Este 11 Nordeste 0 902.8 -0.4 60
2019-08-08 05:00:00 17.6 3 Este 9 Noroeste 0 903 -0.4 58
2019-08-08 04:00:00 18.2 5 Oeste 15 Oeste 0 903.1 -0.2 59
2019-08-08 03:00:00 18.4 8 Oeste 16 Oeste 0 903.2 -0.1 62
2019-08-08 02:00:00 17.8 5 Sudoeste 12 Sur 0 903.4 0.2 65
2019-08-08 01:00:00 17.5 6 Sur 13 Sudeste 0 903.3 0.5 66
2019-08-08 00:00:00 18.3 4 Sur 14 Sudoeste 0 903.3 0.9 63
2019-08-07 23:00:00 19.5 8 Sudoeste 15 Sudoeste 0 903.2 0.9 58
2019-08-07 22:00:00 20.2 8 Oeste 26 Sudoeste 0 902.8 0.5 56
2019-08-07 21:00:00 21.5 13 Oeste 25 Oeste 0 902.4 -0.3 52
2019-08-07 20:00:00 22.1 13 Oeste 29 Oeste 0 902.3 -0.6 51
2019-08-07 19:00:00 23.1 10 Sudoeste 25 Sudoeste 0 902.3 -0.2 50
2019-08-07 18:00:00 23.6 13 Sudoeste 26 Sudoeste 0 902.7 -0.6 47
2019-08-07 17:00:00 23.2 8 Sudoeste 20 Sudoeste 0 902.9 -0.3 47
2019-08-07 16:00:00 21.6 8 Noroeste 30 Oeste 0 902.5 -0.1 47
2019-08-07 15:00:00 22.8 12 Oeste 30 Oeste 0 903.3 1.1 42
2019-08-07 14:00:00 23.7 8 Sur 16 Sudoeste 0 903.2 1.6 49
2019-08-07 13:00:00 23.4 7 Sur 12 Sur 0 902.6 1.3 49
2019-08-07 12:00:00 22.9 5 Sudeste 22 Sudeste 0 902.2 1.4 47
2019-08-07 11:00:00 22.3 9 Sudeste 22 Sudeste 0 901.6 1.1 47
2019-08-07 10:00:00 23 7 Sur 12 Sur 0 901.3 1.2 47
2019-08-07 09:00:00 21.2 4 Noroeste 10 Oeste 0 900.8 1.2 49
2019-08-07 08:00:00 20.7 4 Oeste 7 Oeste 0 900.5 0.3 49
2019-08-07 07:00:00 20.4 4 Noroeste 8 Oeste 0 900.1 0.1 47
2019-08-07 06:00:00 21 3 Oeste 11 Oeste 0 899.6 -0.4 45
2019-08-07 05:00:00 21.5 5 Oeste 10 Oeste 0 900.2 0.3 43
2019-08-07 04:00:00 22.9 5 Sudeste 11 Sudeste 0 900 -0.4 41
2019-08-07 03:00:00 22.8 0 Calma 9 Sudoeste 0 900 -0.3 41
2019-08-07 02:00:00 23.3 0 Calma 7 Noroeste 0 899.9 -0.6 40
2019-08-07 01:00:00 24.2 3 Oeste 21 Oeste 0 900.4 0.3 39
2019-08-07 00:00:00 24.8 7 Sudoeste 14 Oeste 0 900.3 0.4 37
2019-08-06 23:00:00 25.5 8 Oeste 17 Sudoeste 0 900.5 0.6 32
2019-08-06 22:00:00 26 5 Oeste 23 Sudoeste 0 900.1 0.2 31
2019-08-06 21:00:00 27.6 15 Sudoeste 37 Sudoeste 0 899.9 -0.4 31
2019-08-06 20:00:00 29.3 12 Sudoeste 33 Sudoeste 0 899.9 -0.8 29
2019-08-06 19:00:00 29.8 13 Sudoeste 31 Sudoeste 0 899.9 -1.2 27
2019-08-06 18:00:00 31.3 15 Sur 35 Sudoeste 0 900.3 -1.4 27
2019-08-06 17:00:00 30.9 15 Sur 30 Sudoeste 0 900.7 -1.6 27
2019-08-06 16:00:00 31.2 13 Sur 37 Sudoeste 0 901.1 -1.5 27
2019-08-06 15:00:00 30.6 13 Sudoeste 32 Sudoeste 0 901.7 -1.1 28
2019-08-06 14:00:00 29.2 13 Sudoeste 31 Sudoeste 0 902.3 -0.6 30
2019-08-06 13:00:00 28.8 14 Sudoeste 31 Sudoeste 0 902.6 -0.4 30
2019-08-06 12:00:00 27.4 11 Sur 23 Sur 0 902.8 -0.1 33
2019-08-06 11:00:00 26.1 9 Sur 16 Sur 0 902.9 0.4 35
2019-08-06 10:00:00 24.8 6 Sudeste 11 Este 0 903 0.9 35
2019-08-06 09:00:00 22.5 6 Sudeste 13 Sudeste 0 902.9 0.7 37
2019-08-06 08:00:00 21.2 3 Nordeste 8 Noroeste 0 902.5 0.3 39
2019-08-06 07:00:00 20.2 7 Este 12 Sudeste 0 902.1 -0.2 37
2019-08-06 06:00:00 21.8 5 Sudeste 7 Sudeste 0 902.2 -0.1 37
2019-08-06 05:00:00 21.7 3 Sur 7 Sudeste 0 902.2 0 37
2019-08-06 04:00:00 22.4 2 Sudeste 6 Sudeste 0 902.3 0 34
2019-08-06 03:00:00 23.3 5 Sudeste 13 Este 0 902.3 0.2 34
2019-08-06 02:00:00 23.1 5 Nordeste 9 Nordeste 0 902.2 0.1 34
2019-08-06 01:00:00 24.3 3 Sur 9 Nordeste 0 902.3 0.3 33
2019-08-06 00:00:00 24.9 5 Norte 12 Oeste 0 902.1 0.5 32
2019-08-05 23:00:00 25 6 Oeste 17 Oeste 0 902.1 0.6 29
2019-08-05 22:00:00 26.8 8 Oeste 22 Sudoeste 0 902 0.4 29
2019-08-05 21:00:00 29 11 Sudoeste 26 Sudoeste 0 901.6 -0.3 26
2019-08-05 20:00:00 31.1 10 Sudoeste 29 Sudoeste 0 901.5 -0.5 25
2019-08-05 19:00:00 31.8 13 Sur 30 Sur 0 901.6 -0.8 25
2019-08-05 18:00:00 32.1 13 Sudoeste 37 Sudoeste 0 901.9 -1 26
2019-08-05 17:00:00 32.1 13 Sudoeste 37 Sudoeste 0 902 -1.2 26
2019-08-05 16:00:00 31.4 14 Sudoeste 37 Sur 0 902.4 -1.3 27
2019-08-05 15:00:00 31.2 16 Sudoeste 37 Sudoeste 0 902.9 -1.2 27
2019-08-05 14:00:00 30.5 15 Sur 35 Sudoeste 0 903.2 -1 28
2019-08-05 13:00:00 29.5 12 Sur 27 Sur 0 903.7 -0.5 33
2019-08-05 12:00:00 27.8 9 Sudeste 18 Sudeste 0 904.1 -0.1 34
2019-08-05 11:00:00 27.1 5 Sudeste 14 Sudeste 0 904.2 0.3 35
2019-08-05 10:00:00 24.4 3 Sur 7 Noroeste 0 904.2 0.6 38
2019-08-05 09:00:00 23 3 Este 10 Este 0 904.2 0.8 39
2019-08-05 08:00:00 21.4 3 Sudeste 5 Sudeste 0 903.9 0.6 40
2019-08-05 07:00:00 20.9 3 Oeste 6 Noroeste 0 903.6 0.3 39
2019-08-05 06:00:00 20.8 4 Noroeste 6 Este 0 903.4 0.2 39
2019-08-05 05:00:00 22 4 Este 11 Sudeste 0 903.3 0 37
2019-08-05 04:00:00 23.2 2 Este 14 Norte 0 903.3 0.1 37
2019-08-05 03:00:00 24.1 5 Nordeste 12 Nordeste 0 903.2 -0.2 37
2019-08-05 02:00:00 24.9 5 Norte 22 Norte 0 903.3 -0.3 36
2019-08-05 01:00:00 25.1 9 Nordeste 20 Norte 0 903.2 0.1 35
2019-08-05 00:00:00 25.3 3 Nordeste 6 Nordeste 0 903.4 0.8 35
2019-08-04 23:00:00 25.9 2 Sudoeste 13 Sudoeste 0 903.6 1.4 33
2019-08-04 22:00:00 27.1 7 Sudoeste 18 Sudoeste 0 903.1 1.1 31
2019-08-04 21:00:00 28.9 9 Sudoeste 21 Sur 0 902.6 0.2 27
2019-08-04 20:00:00 31 9 Sudoeste 24 Sudoeste 0 902.2 -0.2 25
2019-08-04 19:00:00 31.9 10 Sudoeste 27 Sur 0 902 -0.9 23
2019-08-04 18:00:00 32.2 10 Sudoeste 31 Sudoeste 0 902.4 -0.9 23
2019-08-04 17:00:00 31.7 13 Sudoeste 33 Sudoeste 0 902.4 -1.2 24
2019-08-04 16:00:00 31.4 13 Sur 32 Sur 0 902.9 -1 25
2019-08-04 15:00:00 30.2 15 Sudoeste 33 Sudoeste 0 903.3 -0.8 25
2019-08-04 14:00:00 30.1 13 Sudoeste 32 Sudoeste 0 903.6 -0.5 29
2019-08-04 13:00:00 29.6 13 Sudoeste 29 Sudoeste 0 903.9 0 30
2019-08-04 12:00:00 27.8 10 Sur 22 Sur 0 904.1 0.6 33
2019-08-04 11:00:00 26.8 8 Sur 15 Sur 0 904.1 0.7 33
2019-08-04 10:00:00 25.7 5 Sudeste 10 Este 0 903.9 1.1 34
2019-08-04 09:00:00 23.2 0 Calma 9 Nordeste 0 903.5 0.9 37
2019-08-04 08:00:00 20.6 4 Norte 12 Este 0 903.4 0.9 38
2019-08-04 07:00:00 21 8 Este 12 Este 0 902.8 0.4 37
2019-08-04 06:00:00 22 8 Nordeste 10 Nordeste 0 902.6 0.3 36
2019-08-04 05:00:00 21.8 5 Este 7 Este 0 902.5 0.5 36
2019-08-04 04:00:00 22.1 3 Sur 8 Sudeste 0 902.4 0.3 36
2019-08-04 03:00:00 23 5 Sur 14 Sur 0 902.3 0 33
2019-08-04 02:00:00 23.8 3 Norte 11 Noroeste 0 902 -0.4 35
2019-08-04 01:00:00 25.1 6 Norte 12 Noroeste 0 902.1 0.3 31
2019-08-04 00:00:00 24.8 5 Noroeste 11 Noroeste 0 902.3 0.6 29
2019-08-03 23:00:00 25.2 6 Noroeste 17 Sudoeste 0 902.4 1 29
2019-08-03 22:00:00 27.1 9 Sudoeste 18 Sudoeste 0 901.8 0.2 26
2019-08-03 21:00:00 28.9 10 Sudoeste 28 Sudoeste 0 901.7 0 23
2019-08-03 20:00:00 30.8 13 Sudoeste 25 Sur 0 901.4 -1 24
2019-08-03 19:00:00 31.8 9 Sudoeste 36 Sur 0 901.6 -1.2 24
2019-08-03 18:00:00 31.9 12 Sudoeste 27 Sudoeste 0 901.7 -1.5 24
2019-08-03 17:00:00 31.4 11 Sur 36 Sudoeste 0 902.4 -1.1 26
2019-08-03 16:00:00 31.5 11 Sudoeste 30 Sudoeste 0 902.8 -1.2 27
2019-08-03 15:00:00 30.6 10 Sur 28 Sudeste 0 903.2 -0.9 30
2019-08-03 14:00:00 30 6 Sur 23 Sur 0 903.5 -0.5 33
2019-08-03 13:00:00 28.4 9 Sur 21 Sur 0 904 -0.1 40
2019-08-03 12:00:00 27.4 8 Este 15 Este 0 904.1 0.1 43
2019-08-03 11:00:00 25.1 5 Sur 13 Este 0 904 0.2 46
2019-08-03 10:00:00 24.5 4 Este 10 Sudeste 0 904.1 0.5 47
2019-08-03 09:00:00 23.2 3 Este 8 Nordeste 0 904 0.8 51
2019-08-03 08:00:00 20.4 4 Este 13 Este 0 903.8 0.6 55
2019-08-03 07:00:00 19.5 10 Este 23 Nordeste 0 903.6 0.6 50
2019-08-03 06:00:00 20.8 12 Nordeste 21 Nordeste 0 903.2 0.1 45
2019-08-03 05:00:00 21.4 9 Nordeste 28 Nordeste 0 903.2 0.1 45
2019-08-03 04:00:00 22 11 Nordeste 31 Nordeste 0 903 -0.1 43
2019-08-03 03:00:00 22.5 14 Nordeste 36 Este 0 903.1 0.2 42
2019-08-03 02:00:00 23.2 20 Nordeste 30 Nordeste 0 903.1 -0.2 39
2019-08-03 01:00:00 23.3 5 Oeste 11 Oeste 0 903.1 0.2 31
2019-08-03 00:00:00 24.1 6 Oeste 11 Oeste 0 902.9 0.2 29
2019-08-02 23:00:00 25.2 7 Oeste 14 Oeste 0 903.3 0.7 28
2019-08-02 22:00:00 26.9 8 Sudoeste 15 Sudoeste 0 902.9 0.6 27
2019-08-02 21:00:00 28.8 6 Sudoeste 18 Sur 0 902.7 0.1 27
2019-08-02 20:00:00 30.9 10 Sudoeste 19 Sur 0 902.6 -0.4 27
2019-08-02 19:00:00 31.3 12 Sur 44 Sur 0 902.3 -1.2 27
2019-08-02 18:00:00 31.8 11 Sudeste 29 Sudeste 0 902.6 -1.2 28
2019-08-02 17:00:00 32 8 Sudeste 24 Sur 0 903 -1 30
2019-08-02 16:00:00 31.6 9 Sur 24 Sur 0 903.5 -0.9 30
2019-08-02 15:00:00 30.4 7 Sur 23 Sudeste 0 903.8 -0.6 33
2019-08-02 14:00:00 29.6 8 Sudeste 28 Sur 0 904 -0.5 33
2019-08-02 13:00:00 28.9 9 Sur 21 Sudeste 0 904.4 0.2 35
2019-08-02 12:00:00 28 5 Este 25 Este 0 904.4 0.7 40
2019-08-02 11:00:00 26.5 10 Sudeste 21 Este 0 904.5 1 44
2019-08-02 10:00:00 26.3 2 Sur 12 Este 0 904.2 0.9 45
2019-08-02 09:00:00 23.2 5 Nordeste 21 Nordeste 0 903.7 0.6 55
2019-08-02 08:00:00 20.9 7 Nordeste 18 Nordeste 0 903.5 0.5 60
2019-08-02 07:00:00 20.5 10 Nordeste 18 Este 0 903.3 0.3 56
2019-08-02 06:00:00 19.7 4 Norte 9 Nordeste 0 903.1 0.1 43
2019-08-02 05:00:00 19.9 4 Este 24 Norte 0 903 0.2 42
2019-08-02 04:00:00 20.4 6 Noroeste 13 Norte 0 903 0.2 40
2019-08-02 03:00:00 21.8 2 Nordeste 11 Este 0 903 0.4 37
2019-08-02 02:00:00 23 5 Norte 13 Nordeste 0 902.8 0.6 36
2019-08-02 01:00:00 22.8 6 Norte 17 Nordeste 0 902.8 1.2 36
2019-08-02 00:00:00 23.3 6 Nordeste 16 Nordeste 0 902.6 1.5 36
2019-08-01 23:00:00 24.2 6 Norte 18 Nordeste 0 902.2 1.4 35
2019-08-01 22:00:00 25.6 3 Norte 21 Sur 0 901.6 1 32
2019-08-01 21:00:00 27.4 9 Sudoeste 25 Sudoeste 0 901.1 0.4 30
2019-08-01 20:00:00 28.6 11 Sudoeste 31 Sudoeste 0 900.8 -0.1 30
2019-08-01 19:00:00 30.1 8 Sudoeste 30 Oeste 0 900.6 -0.6 31
2019-08-01 18:00:00 30.8 13 Sudoeste 27 Sur 0 900.7 -0.9 33
2019-08-01 17:00:00 30.4 9 Sudoeste 30 Sudoeste 0 900.9 -1 34
2019-08-01 16:00:00 29.5 9 Sur 29 Sur 0 901.2 -0.9 37
2019-08-01 15:00:00 28.3 9 Sur 35 Sur 0 901.6 -0.7 42
2019-08-01 14:00:00 27.2 9 Sur 28 Sudoeste 0 901.9 -0.2 46
2019-08-01 13:00:00 25.2 10 Sudeste 31 Sudeste 0 902.1 0 53
2019-08-01 12:00:00 24.2 8 Sudeste 23 Sudeste 0 902.3 0.4 57
2019-08-01 11:00:00 22.7 4 Sudeste 13 Este 0 902.1 0.2 62
2019-08-01 10:00:00 20.8 5 Sudeste 13 Sudeste 0 902.1 0.4 66
2019-08-01 09:00:00 19.4 8 Sudeste 10 Sudeste 0 901.9 0.2 70
2019-08-01 08:00:00 17.9 4 Este 7 Nordeste 0 901.9 0.3 75
2019-08-01 07:00:00 17.4 4 Este 8 Este 0 901.7 -0.1 75
2019-08-01 06:00:00 18.2 3 Este 9 Sudeste 0 901.7 -0.6 74
2019-08-01 05:00:00 18.6 7 Sudeste 14 Sudeste 0 901.6 -0.6 75
2019-08-01 04:00:00 19 10 Sudeste 17 Sudeste 0 901.8 -0.5 75
2019-08-01 03:00:00 19.7 8 Sudeste 20 Sudeste 0 902.3 0.1 74
2019-08-01 02:00:00 20.5 8 Sudeste 19 Sur 0 902.2 0.4 71
2019-08-01 01:00:00 21.5 11 Sur 19 Sur 0 902.3 1.3 68
2019-08-01 00:00:00 22.5 10 Sudeste 17 Sudeste 0 902.2 1.4 66
2019-07-31 23:00:00 22.9 10 Sudeste 24 Sudeste 1.2 901.8 0.9 66
2019-07-31 22:00:00 24.5 18 Sudeste 33 Sudeste 0 901 -0.2 52
2019-07-31 21:00:00 27.2 5 Sur 13 Sur 0 900.8 -0.7 38
2019-07-31 20:00:00 29 9 Sur 19 Sudoeste 0 900.9 -1.1 36
2019-07-31 19:00:00 29.6 4 Sur 23 Sur 0 901.2 -1.6 36
2019-07-31 18:00:00 29.6 11 Sudeste 24 Sur 0 901.5 -1.8 37
2019-07-31 17:00:00 29.2 9 Sudoeste 21 Sur 0 902 -1.7 40
2019-07-31 16:00:00 28.2 9 Sur 26 Sur 0 902.8 -1.3 42
2019-07-31 15:00:00 26.9 10 Este 23 Este 0 903.3 -1.1 45
2019-07-31 14:00:00 25.6 10 Sudeste 23 Sudeste 0 903.7 -0.7 49
2019-07-31 13:00:00 24.5 7 Sudeste 23 Sudeste 0 904.1 -0.2 51
2019-07-31 12:00:00 23.4 10 Sudeste 20 Sur 0 904.4 0.1 52
2019-07-31 11:00:00 20.8 8 Este 22 Este 0 904.4 0 54
2019-07-31 10:00:00 18.8 6 Nordeste 22 Nordeste 0 904.3 -0.2 54
2019-07-31 09:00:00 16.8 9 Nordeste 26 Nordeste 0 904.3 0.1 55
2019-07-31 08:00:00 16.4 7 Nordeste 20 Nordeste 0 904.4 0.3 55
2019-07-31 07:00:00 16.6 6 Nordeste 22 Nordeste 0 904.5 0.4 54
2019-07-31 06:00:00 17.2 6 Nordeste 24 Nordeste 0 904.2 -0.2 51
2019-07-31 05:00:00 17.1 9 Nordeste 30 Nordeste 0 904.1 -0.2 50
2019-07-31 04:00:00 17.1 9 Nordeste 30 Nordeste 0 904.1 0.3 49
2019-07-31 03:00:00 16.9 7 Nordeste 31 Este 0 904.4 0.6 46
2019-07-31 02:00:00 18.7 14 Nordeste 34 Este 0 904.3 0.8 42
2019-07-31 01:00:00 18.7 14 Nordeste 37 Nordeste 0 903.8 0.7 43
2019-07-31 00:00:00 19.7 12 Nordeste 30 Nordeste 0 903.8 1.1 37
2019-07-30 23:00:00 20.3 7 Nordeste 24 Norte 0 903.5 1 37
2019-07-30 22:00:00 21.5 6 Nordeste 20 Nordeste 0 903.1 0.7 35
2019-07-30 21:00:00 24.5 10 Sudeste 18 Este 0 902.7 0 28
2019-07-30 20:00:00 26.6 7 Sur 20 Este 0 902.5 -0.7 27
2019-07-30 19:00:00 27.5 8 Sudeste 20 Sudeste 0 902.4 -1.2 27
2019-07-30 18:00:00 27.8 4 Sudoeste 14 Sudoeste 0 902.7 -1.4 28
2019-07-30 17:00:00 28.1 2 Norte 18 Oeste 0 903.2 -1.3 29
2019-07-30 16:00:00 26.5 5 Sudeste 20 Sudeste 0 903.6 -1.3 31
2019-07-30 15:00:00 25.1 9 Sur 23 Sudeste 0 904.1 -0.7 33
2019-07-30 14:00:00 24.6 5 Sudeste 28 Sudeste 0 904.5 -0.2 34
2019-07-30 13:00:00 22.7 7 Sur 21 Sur 0 904.9 0.2 37
2019-07-30 12:00:00 21.8 5 Sudeste 21 Este 0 904.8 0.6 40
2019-07-30 11:00:00 21.2 7 Sudeste 18 Este 0 904.7 1.3 42
2019-07-30 10:00:00 17.8 2 Noroeste 8 Oeste 0 904.7 1.7 47
2019-07-30 09:00:00 14.7 4 Noroeste 12 Noroeste 0 904.2 1.2 53
2019-07-30 08:00:00 14 4 Noroeste 10 Noroeste 0 903.4 0.7 51
2019-07-30 07:00:00 13.5 3 Noroeste 5 Noroeste 0 903 0.6 51
2019-07-30 06:00:00 13.8 3 Noroeste 9 Oeste 0 903 0.7 51
2019-07-30 05:00:00 14.2 5 Oeste 16 Oeste 0 902.7 0.7 47
2019-07-30 04:00:00 16.1 4 Sur 12 Este 0 902.4 0.6 42
2019-07-30 03:00:00 17 4 Este 14 Este 0 902.3 0.8 41
2019-07-30 02:00:00 17.8 4 Nordeste 13 Nordeste 0 902 0.7 40
2019-07-30 01:00:00 18.1 4 Sudeste 14 Oeste 0 901.8 1.3 40
2019-07-30 00:00:00 19.5 8 Oeste 22 Oeste 0 901.5 1.5 38
2019-07-29 23:00:00 20.9 13 Oeste 25 Oeste 0 901.3 1.7 36
2019-07-29 22:00:00 21.8 10 Oeste 19 Oeste 0 900.5 1.4 36
2019-07-29 21:00:00 24.1 9 Oeste 24 Oeste 0 900 0.7 33
2019-07-29 20:00:00 27.2 8 Oeste 25 Sudoeste 0 899.6 0.1 34
2019-07-29 19:00:00 29 7 Oeste 39 Sur 0 899.1 -0.5 32
2019-07-29 18:00:00 28.8 11 Sur 32 Sur 0 899.3 -0.7 30
2019-07-29 17:00:00 28.8 11 Sur 42 Sur 0 899.5 -0.7 30
2019-07-29 16:00:00 28.3 12 Sur 34 Sur 0 899.6 -0.8 33
2019-07-29 15:00:00 27.6 12 Sur 32 Sur 0 900 -0.6 34
2019-07-29 14:00:00 27 14 Sudoeste 35 Sudoeste 0 900.2 -0.4 36
2019-07-29 13:00:00 26.5 13 Sur 30 Sur 0 900.4 0 35
2019-07-29 12:00:00 24.9 12 Sur 24 Sur 0 900.6 0.2 35
2019-07-29 11:00:00 23.5 8 Sur 18 Este 0 900.6 0.6 35
2019-07-29 10:00:00 23.2 4 Sudeste 17 Este 0 900.4 0.8 35
2019-07-29 09:00:00 20.2 0 Calma 8 Este 0 900.4 0.9 38
2019-07-29 08:00:00 18.5 2 Este 11 Este 0 900 0.5 39
2019-07-29 07:00:00 17.7 3 Sudeste 8 Norte 0 899.6 0.1 39
2019-07-29 06:00:00 17.6 4 Norte 7 Noroeste 0 899.5 -0.1 40
2019-07-29 05:00:00 18.5 4 Este 8 Sudeste 0 899.5 -0.1 39
2019-07-29 04:00:00 19.4 4 Sudoeste 7 Sudoeste 0 899.5 -0.1 39
2019-07-29 03:00:00 18.9 0 Calma 5 Norte 0 899.6 -0.1 39
2019-07-29 02:00:00 19.3 3 Norte 8 Noroeste 0 899.6 -0.1 39
2019-07-29 01:00:00 20.7 3 Nordeste 6 Nordeste 0 899.6 0.5 37
2019-07-29 00:00:00 20.4 2 Noroeste 7 Oeste 0 899.7 1 36
2019-07-28 23:00:00 21.3 2 Oeste 8 Oeste 0 899.7 1.4 36
2019-07-28 22:00:00 22.6 3 Noroeste 19 Sudoeste 0 899.1 0.9 38
2019-07-28 21:00:00 24.5 11 Sudoeste 26 Sudoeste 0 898.7 0.4 39
2019-07-28 20:00:00 26.5 8 Sudoeste 24 Sudoeste 0 898.3 -0.5 35
2019-07-28 19:00:00 27.5 7 Oeste 24 Sur 0 898.2 -1 31
2019-07-28 18:00:00 26.7 12 Sudeste 24 Sur 0 898.3 -1.3 37
2019-07-28 17:00:00 25.8 13 Sudeste 28 Sur 0 898.8 -1.3 38
2019-07-28 16:00:00 25.6 6 Sur 21 Sur 0 899.2 -1.4 40
2019-07-28 15:00:00 24.7 7 Sur 22 Sudoeste 0 899.6 -1.3 42
2019-07-28 14:00:00 22.6 3 Sudeste 19 Sudeste 0 900.1 -0.9 46
2019-07-28 13:00:00 21.3 8 Sur 17 Sur 0 900.6 -0.6 49
2019-07-28 12:00:00 18.8 6 Sur 16 Sudeste 0 900.9 -0.1 55
2019-07-28 11:00:00 18.4 5 Sur 14 Sudeste 0 901 0.2 58
2019-07-28 10:00:00 17.2 4 Este 14 Este 0 901.2 0.7 62
2019-07-28 09:00:00 15 4 Sudeste 9 Sur 0 901 0.8 69
2019-07-28 08:00:00 12.3 4 Norte 9 Este 0 900.8 0.7 79
2019-07-28 07:00:00 11.2 0 Calma 10 Este 0 900.5 0.3 79
2019-07-28 06:00:00 11.8 2 Sudoeste 6 Nordeste 0 900.2 0.3 72
2019-07-28 05:00:00 12 5 Este 11 Este 0 900.1 0.5 70
2019-07-28 04:00:00 14 3 Sudoeste 15 Este 0 900.2 0.6 66
2019-07-28 03:00:00 14.5 9 Norte 20 Norte 0 899.9 0.5 62
2019-07-28 02:00:00 14.5 7 Nordeste 22 Norte 0 899.6 0.3 62
2019-07-28 01:00:00 15.6 8 Nordeste 24 Nordeste 0 899.6 0.8 61
2019-07-28 00:00:00 16.4 8 Nordeste 24 Norte 0 899.4 1.3 58
2019-07-27 23:00:00 17.5 7 Norte 27 Norte 0 899.3 1.9 51
2019-07-26 12:00:00 26 9 Sudoeste 24 Sudoeste 0 900.5 -0.1 47
2019-07-26 11:00:00 24.5 4 Sur 15 Sur 0 900.7 0 49
2019-07-26 10:00:00 22.5 8 Sur 13 Sur 0 900.8 0.1 52
2019-07-26 09:00:00 21.8 0 Calma 8 Este 0 900.6 -0.1 51
2019-07-26 08:00:00 20.4 0 Calma 14 Sur 0 900.7 -0.2 51
2019-07-26 07:00:00 21.1 4 Sudoeste 10 Nordeste 0 900.7 -0.9 51
2019-07-26 06:00:00 21.6 3 Noroeste 10 Noroeste 0 900.7 -0.3 49
2019-07-26 05:00:00 22 3 Oeste 12 Oeste 0 900.9 -0.4 47
2019-07-26 04:00:00 23.2 8 Sudoeste 16 Oeste 0 901.6 0.1 38
2019-07-26 03:00:00 23.9 8 Este 15 Sudeste 0 901 -0.5 36
2019-07-26 02:00:00 24 2 Sur 12 Oeste 0 901.3 -0.4 37
2019-07-26 01:00:00 24 6 Oeste 15 Oeste 0 901.5 0 35
2019-07-26 00:00:00 24.7 7 Oeste 14 Oeste 0 901.5 0.2 35
2019-07-25 23:00:00 24.9 8 Oeste 16 Oeste 0 901.7 0.6 35
2019-07-25 22:00:00 26.5 9 Oeste 23 Oeste 0 901.5 0.4 33
2019-07-25 21:00:00 28.9 11 Oeste 27 Sudoeste 0 901.3 -0.2 32
2019-07-25 20:00:00 31 11 Sudoeste 31 Sudoeste 0 901.1 -0.9 30
2019-07-25 19:00:00 31.1 12 Sudoeste 32 Oeste 0 901.1 -1.3 30
2019-07-25 18:00:00 32 15 Sur 36 Sur 0 901.5 -1.3 28
2019-07-25 17:00:00 31.4 9 Sur 36 Sudoeste 0 902 -1.1 30
2019-07-25 16:00:00 31.6 17 Sudoeste 40 Sudoeste 0 902.4 -1.1 31
2019-07-25 15:00:00 31.5 14 Sudoeste 39 Sudoeste 0 902.8 -0.9 31
2019-07-25 14:00:00 30.5 14 Sudoeste 42 Sudoeste 0 903.1 -0.7 31
2019-07-25 13:00:00 30 5 Sudoeste 22 Sur 0 903.5 -0.6 34
2019-07-25 12:00:00 28.7 8 Sudeste 38 Sur 0 903.7 0.2 36
2019-07-25 11:00:00 27.4 2 Este 13 Sudeste 0 903.8 0.5 37
2019-07-25 10:00:00 25.6 7 Sudeste 17 Este 0 904.1 0.9 39
2019-07-25 09:00:00 24.9 6 Este 15 Este 0 903.5 0.4 39
2019-07-25 08:00:00 22.5 7 Nordeste 15 Este 0 903.3 0.4 41
2019-07-25 07:00:00 21.9 5 Nordeste 14 Este 0 903.2 0.1 41
2019-07-25 06:00:00 22.4 6 Este 15 Este 0 903.1 -0.4 40
2019-07-25 05:00:00 22.7 6 Nordeste 13 Este 0 902.9 -0.5 39
2019-07-25 04:00:00 23.1 10 Este 14 Este 0 903.1 -0.1 37
2019-07-25 03:00:00 23.9 3 Nordeste 10 Este 0 903.5 0.4 36
2019-07-25 02:00:00 25.1 7 Este 22 Sudeste 0 903.4 0.6 34
2019-07-25 01:00:00 26.3 10 Sudeste 22 Sudeste 0 903.2 0.7 33
2019-07-25 00:00:00 27.5 13 Sudeste 25 Sudeste 0 903.1 0.8 32
2019-07-24 23:00:00 28.1 3 Sur 8 Sur 0 902.8 0.5 32
2019-07-24 22:00:00 29.2 4 Sur 15 Sur 0 902.5 0 31
2019-07-24 21:00:00 30.9 9 Sur 22 Sur 0 902.3 -0.6 30
2019-07-24 20:00:00 32.4 12 Sur 24 Sudeste 0 902.3 -1.3 30
2019-07-24 19:00:00 33.5 10 Sudoeste 28 Sudoeste 0 902.5 -1.3 30
2019-07-24 18:00:00 32 9 Sur 25 Sudeste 0 902.9 -1.6 31
2019-07-24 17:00:00 33.6 10 Sudoeste 33 Sudeste 0 903.6 -1.5 31
2019-07-24 16:00:00 32.6 12 Sur 32 Sudeste 0 903.8 -1.5 32
2019-07-24 15:00:00 31.8 10 Sudeste 26 Sur 0 904.5 -1.1 33
2019-07-24 14:00:00 31.3 10 Sudeste 24 Nordeste 0 905.1 -0.5 33
2019-07-24 13:00:00 29.9 10 Sudeste 23 Este 0 905.3 -0.3 34
2019-07-24 12:00:00 28.9 11 Este 27 Sudeste 0 905.6 0 36
2019-07-24 11:00:00 27.5 16 Sudeste 24 Sudeste 0 905.6 0.3 38
2019-07-24 10:00:00 27.4 10 Este 18 Este 0 905.6 0.4 39
2019-07-24 09:00:00 26.1 4 Este 10 Este 0 905.6 0.4 42
2019-07-24 08:00:00 22.2 2 Norte 6 Noroeste 0 905.3 0.5 46
2019-07-24 07:00:00 21.2 0 Calma 10 Este 0 905.2 0.4 45
2019-07-24 06:00:00 22.2 3 Noroeste 6 Sudoeste 0 905.2 -0.5 45
2019-07-24 05:00:00 22.3 2 Norte 8 Noroeste 0 904.8 -1.9 45
2019-07-24 04:00:00 22.7 5 Norte 12 Noroeste 0 904.8 -1.7 45
2019-07-24 03:00:00 22.8 6 Noroeste 19 Sudoeste 0 905.7 -0.7 47
2019-07-24 02:00:00 23 4 Oeste 13 Noroeste 0 906.7 -0.3 47
2019-07-24 01:00:00 22 7 Oeste 13 Noroeste 0 906.5 0.6 52
2019-07-24 00:00:00 22 4 Noroeste 26 Sudoeste 0 906.4 -0.3 51
2019-07-23 23:00:00 22.6 10 Oeste 34 Sudoeste 0 907 3.5 51
2019-07-23 22:00:00 22.3 9 Noroeste 28 Noroeste 0.2 905.9 2.7 55
2019-07-23 21:00:00 24.8 15 Oeste 66 Sudoeste 0 906.7 2.6 41
2019-07-23 20:00:00 32 14 Sur 33 Sur 0 903.5 -1.3 27
2019-07-23 19:00:00 34.1 7 Sudoeste 26 Sudeste 0 903.2 -1.8 27
2019-07-23 18:00:00 33.9 10 Sudeste 28 Este 0 904.1 -1.6 27
2019-07-23 17:00:00 33.4 12 Sudeste 27 Sur 0 904.8 -1.6 28
2019-07-23 16:00:00 33.1 10 Este 25 Este 0 905 -1.7 28
2019-07-23 15:00:00 31 7 Sudeste 24 Sudeste 0 905.7 -1.4 29
2019-07-23 14:00:00 31 7 Sudeste 26 Sudeste 0 906.4 -0.9 30
2019-07-23 13:00:00 30.3 12 Sudeste 30 Sur 0 906.7 -0.8 31
2019-07-23 12:00:00 27.4 3 Oeste 28 Sudeste 0 907.1 0.2 35
2019-07-23 11:00:00 27.7 7 Este 22 Este 0 907.3 0 33
2019-07-23 10:00:00 25.5 12 Este 30 Este 0 907.5 0 36
2019-07-23 09:00:00 23.9 18 Este 26 Sudeste 0 906.9 -0.8 37
2019-07-23 08:00:00 22.5 9 Este 13 Este 0 907.3 0.1 39
2019-07-23 07:00:00 20.8 8 Norte 15 Norte 0 907.5 0.2 46
2019-07-23 06:00:00 22.6 4 Este 25 Este 0 907.7 -0.2 37
2019-07-23 05:00:00 23.1 6 Nordeste 15 Este 0 907.2 -0.7 37
2019-07-23 04:00:00 23.7 4 Norte 9 Norte 0 907.3 -0.8 37
2019-07-23 03:00:00 25.5 6 Sur 14 Sur 0 907.9 0 35
2019-07-23 02:00:00 25.2 6 Este 14 Sudeste 0 907.9 0.2 35
2019-07-23 01:00:00 25.9 6 Este 17 Este 0 908.1 1.2 33
2019-07-23 00:00:00 26.7 11 Sudeste 25 Sudeste 0 907.9 1.4 30
2019-07-22 23:00:00 27.7 10 Sudeste 24 Sudeste 0 907.7 1.4 29
2019-07-22 22:00:00 28.9 15 Sudeste 29 Este 0 906.9 0.4 30
2019-07-22 21:00:00 30.9 14 Sudeste 27 Sur 0 906.5 -0.4 30
2019-07-22 20:00:00 32.6 15 Sudeste 31 Sudeste 0 906.3 -1.4 30
2019-07-22 19:00:00 32.9 15 Sudeste 32 Sudeste 0 906.5 -1.6 30
2019-07-22 18:00:00 33.5 14 Sudeste 28 Sudeste 0 906.9 -2 29
2019-07-22 17:00:00 33.3 13 Sur 29 Este 0 907.7 -1.3 30
2019-07-22 16:00:00 32.5 11 Sur 28 Sudeste 0 908.1 -1.4 30
2019-07-22 15:00:00 31.1 12 Sudeste 27 Este 0 908.9 -0.7 30
2019-07-22 14:00:00 29.9 11 Sudeste 28 Este 0 909 -0.6 31
2019-07-22 13:00:00 29 12 Sudeste 23 Sudeste 0 909.5 -0.2 32
2019-07-22 12:00:00 28.5 13 Este 23 Este 0 909.6 -0.1 33
2019-07-22 11:00:00 27.9 9 Este 24 Este 0 909.6 0.2 33
2019-07-22 10:00:00 26.4 10 Este 18 Este 0 909.7 0.5 35
2019-07-22 09:00:00 24.6 12 Este 19 Este 0 909.7 0.6 38
2019-07-22 08:00:00 22.4 10 Este 15 Este 0 909.4 0.1 41
2019-07-22 07:00:00 21.9 7 Nordeste 15 Nordeste 0 909.2 -0.4 44
2019-07-22 06:00:00 22.2 3 Nordeste 8 Nordeste 0 909.1 -0.8 45
2019-07-22 05:00:00 22.4 3 Nordeste 9 Nordeste 0 909.3 -0.4 45
2019-07-22 04:00:00 22.7 3 Nordeste 12 Este 0 909.6 0 45
2019-07-22 03:00:00 23.1 7 Este 14 Sudeste 0 909.9 0.9 45
2019-07-22 02:00:00 24.5 15 Sur 28 Sudeste 0 909.7 1.5 45
2019-07-22 01:00:00 25.5 10 Sudeste 21 Sudeste 0 909.6 2.7 45
2019-07-22 00:00:00 26.7 8 Este 14 Sudeste 0 909 2.8 42